Time;durP1;ratioP1;P1;durP2;ratioP2;P2;SDS_P1;SDS_P2;PMS_P1;PMS_P2;Temp;Humidity;BMP_temperature;BMP_pressure;BME280_temperature;BME280_humidity;BME280_pressure;Samples;Min_cycle;Max_cycle;Signal;HPM_P1;HPM_P2
2023/04/19 00:00:11;;;;;;;14.93;9.65;;;;;;;8.14;100.00;97797.94;5034187;28;20041;-60
2023/04/19 00:02:38;;;;;;;18.08;10.73;;;;;;;8.07;100.00;97803.38;5040183;28;20036;-60
2023/04/19 00:05:07;;;;;;;16.65;10.63;;;;;;;8.02;100.00;97805.94;5039276;28;20041;-59
2023/04/19 00:07:34;;;;;;;17.38;11.10;;;;;;;8.00;100.00;97806.16;5043713;28;20063;-60
2023/04/19 00:10:00;;;;;;;16.48;10.30;;;;;;;8.02;100.00;97800.53;5041222;28;20037;-59
2023/04/19 00:12:27;;;;;;;17.55;10.45;;;;;;;8.04;100.00;97801.16;5043855;28;20041;-60
2023/04/19 00:14:53;;;;;;;16.85;10.15;;;;;;;8.01;100.00;97799.72;5036086;28;20108;-60
2023/04/19 00:17:20;;;;;;;16.88;10.50;;;;;;;7.99;100.00;97798.31;5041442;28;20033;-60
2023/04/19 00:19:46;;;;;;;17.65;11.07;;;;;;;7.92;100.00;97801.88;5040018;28;20041;-60
2023/04/19 00:22:13;;;;;;;17.92;10.80;;;;;;;8.01;100.00;97798.91;5035880;28;20409;-60
2023/04/19 00:24:40;;;;;;;15.55;10.48;;;;;;;7.94;100.00;97802.50;5036765;28;20511;-59
2023/04/19 00:27:06;;;;;;;15.07;9.73;;;;;;;8.03;100.00;97803.00;5028973;28;20040;-59
2023/04/19 00:29:33;;;;;;;15.77;9.32;;;;;;;8.01;100.00;97798.91;5044891;28;20441;-59
2023/04/19 00:31:59;;;;;;;20.17;10.80;;;;;;;7.98;100.00;97792.06;5032785;28;20073;-60
2023/04/19 00:34:26;;;;;;;20.55;10.95;;;;;;;7.97;100.00;97797.69;5031941;28;20102;-60
2023/04/19 00:36:55;;;;;;;18.73;10.85;;;;;;;7.94;100.00;97804.34;5042166;28;20063;-60
2023/04/19 00:39:21;;;;;;;16.42;9.93;;;;;;;8.06;100.00;97801.72;5033675;28;20539;-60
2023/04/19 00:41:48;;;;;;;19.40;11.30;;;;;;;8.00;100.00;97794.56;5032508;28;20587;-60
2023/04/19 00:44:17;;;;;;;17.50;10.90;;;;;;;7.88;100.00;97789.91;5036294;28;20068;-60
2023/04/19 00:46:44;;;;;;;16.83;10.52;;;;;;;7.90;100.00;97790.50;5040688;28;20439;-60
2023/04/19 00:49:10;;;;;;;15.48;10.45;;;;;;;7.89;100.00;97788.84;5036796;28;20041;-59
2023/04/19 00:51:37;;;;;;;18.25;9.80;;;;;;;7.91;100.00;97784.06;5040128;28;20036;-59
2023/04/19 00:54:04;;;;;;;16.77;10.15;;;;;;;7.87;100.00;97788.25;5030347;28;20049;-60
2023/04/19 00:56:33;;;;;;;16.38;9.98;;;;;;;7.79;100.00;97784.00;5039011;28;20471;-60
2023/04/19 00:58:59;;;;;;;18.80;10.25;;;;;;;7.81;100.00;97783.75;5028403;28;20087;-60
2023/04/19 01:01:26;;;;;;;16.38;10.45;;;;;;;7.88;100.00;97787.19;5038340;28;20511;-61
2023/04/19 01:03:53;;;;;;;17.50;11.02;;;;;;;7.91;100.00;97785.94;5032727;28;20049;-59
2023/04/19 01:06:20;;;;;;;19.08;11.20;;;;;;;7.84;100.00;97786.00;5043276;28;20441;-59
2023/04/19 01:08:46;;;;;;;18.58;11.55;;;;;;;7.84;100.00;97788.69;5035893;28;20668;-60
2023/04/19 01:11:13;;;;;;;18.33;10.63;;;;;;;7.86;100.00;97773.13;5043493;28;20040;-60
2023/04/19 01:13:40;;;;;;;17.77;11.38;;;;;;;7.89;100.00;97771.88;5027630;28;20118;-61
2023/04/19 01:16:06;;;;;;;19.83;11.18;;;;;;;7.96;100.00;97771.78;5038115;28;20047;-61
2023/04/19 01:18:36;;;;;;;19.08;10.95;;;;;;;7.84;100.00;97775.22;5029355;28;20045;-59
2023/04/19 01:21:03;;;;;;;21.77;11.65;;;;;;;7.87;100.00;97771.25;5042723;28;20056;-60
2023/04/19 01:23:30;;;;;;;19.13;11.10;;;;;;;7.85;100.00;97762.56;5029289;28;20053;-60
2023/04/19 01:25:56;;;;;;;18.33;11.20;;;;;;;7.77;100.00;97769.06;5025840;28;20132;-60
2023/04/19 01:28:24;;;;;;;16.90;10.77;;;;;;;7.80;100.00;97765.94;5034784;28;20044;-60
2023/04/19 01:30:52;;;;;;;18.05;10.93;;;;;;;7.76;100.00;97770.13;5039790;28;20544;-61
2023/04/19 01:33:20;;;;;;;18.35;10.18;;;;;;;7.80;100.00;97763.22;5034459;28;20076;-59
2023/04/19 01:35:47;;;;;;;17.05;10.48;;;;;;;7.77;100.00;97758.28;5034834;28;20042;-61
2023/04/19 01:38:14;;;;;;;16.67;11.05;;;;;;;7.80;100.00;97752.44;5043531;28;20044;-59
2023/04/19 01:40:41;;;;;;;18.23;10.63;;;;;;;7.68;100.00;97758.56;5036287;28;20099;-61
2023/04/19 01:43:11;;;;;;;20.27;11.25;;;;;;;7.71;100.00;97753.81;5035453;28;20041;-60
2023/04/19 01:45:38;;;;;;;20.00;11.20;;;;;;;7.68;100.00;97757.78;5033817;28;20103;-59
2023/04/19 01:48:05;;;;;;;16.60;10.63;;;;;;;7.75;100.00;97761.22;5040581;28;20095;-60
2023/04/19 01:50:33;;;;;;;17.48;11.30;;;;;;;7.84;100.00;97755.50;5031721;28;20037;-60
2023/04/19 01:52:59;;;;;;;16.70;10.45;;;;;;;7.87;100.00;97752.38;5037125;28;20037;-60
2023/04/19 01:55:26;;;;;;;18.63;11.18;;;;;;;7.88;100.00;97754.00;5033999;28;20547;-59
2023/04/19 01:57:53;;;;;;;16.70;10.52;;;;;;;7.84;100.00;97750.94;5013521;28;20045;-60
2023/04/19 02:00:20;;;;;;;17.02;10.15;;;;;;;7.84;100.00;97756.34;5049451;28;20061;-60
2023/04/19 02:02:47;;;;;;;19.60;11.30;;;;;;;7.85;100.00;97746.41;5029100;28;20045;-60
2023/04/19 02:05:14;;;;;;;18.50;10.63;;;;;;;7.76;100.00;97745.84;5038054;28;20033;-60
2023/04/19 02:07:41;;;;;;;18.75;11.48;;;;;;;7.74;100.00;97748.78;5032432;28;20559;-60
2023/04/19 02:10:09;;;;;;;18.95;11.55;;;;;;;7.75;100.00;97739.66;5032397;28;20045;-60
2023/04/19 02:12:36;;;;;;;20.55;11.27;;;;;;;7.76;100.00;97740.47;5027822;28;20049;-60
2023/04/19 02:15:03;;;;;;;18.33;11.43;;;;;;;7.76;100.00;97735.06;5034368;28;20051;-59
2023/04/19 02:17:30;;;;;;;21.95;10.82;;;;;;;7.69;100.00;97729.75;5026786;28;20323;-59
2023/04/19 02:19:58;;;;;;;17.23;10.77;;;;;;;7.70;100.00;97734.09;5033027;28;20087;-60
2023/04/19 02:22:25;;;;;;;19.27;10.77;;;;;;;7.67;100.00;97724.59;5038438;28;20652;-60
2023/04/19 02:24:52;;;;;;;19.25;11.98;;;;;;;7.66;100.00;97722.13;5027501;28;20103;-60
2023/04/19 02:27:26;;;;;;;19.05;11.50;;;;;;;7.53;100.00;97726.59;5024744;28;20040;-60
2023/04/19 02:29:53;;;;;;;18.90;11.63;;;;;;;7.50;100.00;97720.84;5031707;28;20083;-60
2023/04/19 02:32:19;;;;;;;19.95;11.10;;;;;;;7.50;100.00;97721.69;5035874;28;20644;-60
2023/04/19 02:34:46;;;;;;;18.58;12.43;;;;;;;7.53;100.00;97717.72;5025016;28;20041;-59
2023/04/19 02:37:12;;;;;;;20.17;11.90;;;;;;;7.58;100.00;97717.03;5023107;28;20069;-60
2023/04/19 02:39:41;;;;;;;22.10;11.32;;;;;;;7.55;100.00;97716.44;5030330;28;20072;-59
2023/04/19 02:42:07;;;;;;;21.85;12.52;;;;;;;7.52;100.00;97721.47;5025720;28;20096;-61
2023/04/19 02:44:34;;;;;;;22.67;12.45;;;;;;;7.53;100.00;97712.31;5035617;28;20110;-59
2023/04/19 02:47:00;;;;;;;20.20;12.05;;;;;;;7.58;100.00;97719.72;5028989;28;20120;-60
2023/04/19 02:49:31;;;;;;;25.42;13.05;;;;;;;7.51;100.00;97707.16;5046426;28;20044;-61
2023/04/19 02:51:58;;;;;;;20.13;12.23;;;;;;;7.51;100.00;97714.41;5034715;28;20148;-60
2023/04/19 02:54:25;;;;;;;19.67;12.00;;;;;;;7.50;100.00;97708.22;5037746;28;20065;-59
2023/04/19 02:56:51;;;;;;;18.83;11.85;;;;;;;7.48;100.00;97704.91;5032617;28;20045;-61
2023/04/19 02:59:18;;;;;;;19.30;12.05;;;;;;;7.44;100.00;97709.09;5032538;28;20106;-60
2023/04/19 03:01:44;;;;;;;19.88;11.98;;;;;;;7.37;100.00;97711.03;5034263;28;20047;-59
2023/04/19 03:04:11;;;;;;;20.00;12.35;;;;;;;7.45;100.00;97712.63;5045132;28;20128;-59
2023/04/19 03:06:40;;;;;;;21.05;13.98;;;;;;;7.40;100.00;97715.97;5041986;28;20124;-59
2023/04/19 03:09:07;;;;;;;21.70;14.52;;;;;;;7.31;100.00;97710.06;5045351;28;20539;-60
2023/04/19 03:11:34;;;;;;;21.05;12.50;;;;;;;7.37;100.00;97709.16;5039804;28;20482;-60
2023/04/19 03:14:01;;;;;;;19.13;12.20;;;;;;;7.34;100.00;97712.28;5037136;28;20064;-59
2023/04/19 03:16:29;;;;;;;20.10;13.55;;;;;;;7.36;100.00;97712.91;5041969;28;20563;-60
2023/04/19 03:18:55;;;;;;;21.58;12.35;;;;;;;7.35;100.00;97711.25;5038256;28;20146;-60
2023/04/19 03:21:27;;;;;;;20.77;13.23;;;;;;;7.28;100.00;97707.81;5036931;28;20053;-60
2023/04/19 03:23:54;;;;;;;18.95;11.95;;;;;;;7.29;100.00;97704.06;5030509;28;20136;-58
2023/04/19 03:26:23;;;;;;;21.40;12.48;;;;;;;7.25;100.00;97702.84;5038510;28;20052;-59
2023/04/19 03:28:52;;;;;;;21.25;12.48;;;;;;;7.33;100.00;97702.56;5026073;28;20073;-61
2023/04/19 03:31:40;;;;;;;24.77;12.90;;;;;;;7.15;100.00;97698.78;5042115;28;20413;-60
2023/04/19 03:34:10;;;;;;;19.83;12.45;;;;;;;7.13;100.00;97698.22;5039340;28;20086;-59
2023/04/19 03:36:41;;;;;;;20.90;13.20;;;;;;;7.06;100.00;97691.22;5038123;28;20053;-60
2023/04/19 03:39:07;;;;;;;21.13;12.93;;;;;;;7.07;100.00;97690.19;5041043;28;20045;-60
2023/04/19 03:41:35;;;;;;;21.05;13.30;;;;;;;7.09;100.00;97693.47;5039106;28;20055;-59
2023/04/19 03:44:24;;;;;;;23.77;12.63;;;;;;;7.08;100.00;97695.34;5029328;28;20053;-60
2023/04/19 03:46:52;;;;;;;20.83;11.88;;;;;;;7.15;100.00;97692.59;5041413;28;20060;-60
2023/04/19 03:49:22;;;;;;;23.30;12.73;;;;;;;7.25;100.00;97692.06;5044922;28;20106;-61
2023/04/19 03:51:56;;;;;;;20.73;12.27;;;;;;;7.28;100.00;97694.31;5042384;28;20056;-60
2023/04/19 03:54:23;;;;;;;23.15;12.25;;;;;;;7.27;100.00;97685.41;5033084;28;20045;-60
2023/04/19 03:56:49;;;;;;;21.90;12.82;;;;;;;7.28;100.00;97676.31;5031869;28;20555;-59
2023/04/19 03:59:16;;;;;;;20.27;12.60;;;;;;;7.29;100.00;97686.03;5039733;28;20127;-60
2023/04/19 04:01:43;;;;;;;23.50;13.40;;;;;;;7.13;100.00;97684.75;5026878;28;20073;-59
2023/04/19 04:04:11;;;;;;;19.80;12.63;;;;;;;7.05;100.00;97679.63;5058120;28;20525;-61
2023/04/19 04:06:38;;;;;;;20.55;12.65;;;;;;;6.95;100.00;97682.84;5033379;28;20052;-59
2023/04/19 04:09:05;;;;;;;21.73;12.65;;;;;;;6.93;100.00;97684.09;5018443;28;20604;-59
2023/04/19 04:11:32;;;;;;;19.25;11.40;;;;;;;6.98;100.00;97684.25;5035272;28;20733;-59
2023/04/19 04:13:59;;;;;;;23.27;11.88;;;;;;;7.15;100.00;97687.22;5034012;28;20045;-60
2023/04/19 04:16:27;;;;;;;20.83;11.80;;;;;;;7.18;100.00;97680.56;5032415;28;20068;-61
2023/04/19 04:18:54;;;;;;;21.73;12.43;;;;;;;7.18;100.00;97683.25;5038057;28;20540;-60
2023/04/19 04:21:25;;;;;;;21.60;12.80;;;;;;;7.02;100.00;97680.06;5036739;28;20072;-59
2023/04/19 04:23:53;;;;;;;19.48;12.20;;;;;;;7.09;100.00;97680.00;5041878;28;20044;-59
2023/04/19 04:26:32;;;;;;;19.98;12.27;;;;;;;7.10;100.00;97687.03;5025678;28;20068;-60
2023/04/19 04:29:10;;;;;;;22.58;12.60;;;;;;;7.15;100.00;97688.03;5033331;28;20045;-60
2023/04/19 04:31:38;;;;;;;23.20;12.27;;;;;;;7.03;100.00;97687.09;5038512;28;20048;-60
2023/04/19 04:34:07;;;;;;;22.50;13.02;;;;;;;6.92;100.00;97685.97;5021879;28;20078;-60
2023/04/19 04:36:37;;;;;;;22.98;13.48;;;;;;;6.92;100.00;97687.84;5024544;28;20738;-61
2023/04/19 04:39:09;;;;;;;23.15;13.60;;;;;;;6.89;100.00;97686.38;5031758;28;20051;-60
2023/04/19 04:41:35;;;;;;;23.73;13.90;;;;;;;6.84;100.00;97689.75;5028306;28;20114;-61
2023/04/19 04:44:03;;;;;;;19.88;12.35;;;;;;;6.91;100.00;97684.31;5030961;28;20700;-61
2023/04/19 04:46:39;;;;;;;21.05;12.70;;;;;;;6.88;100.00;97685.59;5023136;28;20064;-62
2023/04/19 04:49:06;;;;;;;19.20;11.07;;;;;;;6.92;100.00;97685.97;5030266;28;20122;-60
2023/04/19 04:51:33;;;;;;;19.38;11.35;;;;;;;6.89;100.00;97684.53;5026516;28;20038;-61
2023/04/19 04:54:00;;;;;;;18.17;11.45;;;;;;;6.88;100.00;97682.06;5028304;28;20530;-61
2023/04/19 04:56:27;;;;;;;20.10;11.52;;;;;;;6.89;100.00;97695.28;5025158;28;20876;-61
2023/04/19 04:58:53;;;;;;;19.10;11.48;;;;;;;6.99;100.00;97691.28;5025663;28;20099;-62
2023/04/19 05:01:26;;;;;;;19.80;11.35;;;;;;;6.97;100.00;97690.69;5027285;28;20037;-61
2023/04/19 05:03:53;;;;;;;17.80;11.20;;;;;;;7.02;100.00;97691.69;5023911;28;20049;-60
2023/04/19 05:06:20;;;;;;;18.08;10.88;;;;;;;6.91;100.00;97692.38;5027659;28;20072;-60
2023/04/19 05:08:46;;;;;;;19.38;11.35;;;;;;;7.02;100.00;97694.38;5025621;28;20060;-61
2023/04/19 05:11:19;;;;;;;17.92;11.43;;;;;;;6.96;100.00;97697.13;5029507;28;20620;-61
2023/04/19 05:13:46;;;;;;;18.60;11.63;;;;;;;6.86;100.00;97695.72;5027235;28;20588;-61
2023/04/19 05:16:12;;;;;;;20.75;11.90;;;;;;;6.80;100.00;97690.41;5021930;28;20491;-62
2023/04/19 05:18:42;;;;;;;17.88;11.43;;;;;;;6.84;100.00;97699.69;5020473;28;20052;-61
2023/04/19 05:21:09;;;;;;;18.85;11.18;;;;;;;6.90;100.00;97698.81;5010471;28;20054;-61
2023/04/19 05:23:37;;;;;;;19.02;11.30;;;;;;;6.91;100.00;97708.53;5030290;28;20052;-61
2023/04/19 05:26:04;;;;;;;19.95;11.65;;;;;;;6.94;100.00;97697.34;5022750;28;20052;-61
2023/04/19 05:28:31;;;;;;;20.77;10.73;;;;;;;7.04;100.00;97699.50;5018794;28;20041;-61
2023/04/19 05:31:08;;;;;;;19.75;11.82;;;;;;;7.14;100.00;97702.53;5026226;28;20137;-61
2023/04/19 05:33:43;;;;;;;18.45;10.93;;;;;;;7.07;100.00;97704.47;5021748;28;20624;-60
2023/04/19 05:36:10;;;;;;;18.83;10.93;;;;;;;7.19;100.00;97706.44;5023635;28;20037;-61
2023/04/19 05:38:36;;;;;;;17.15;11.15;;;;;;;7.18;100.00;97704.81;5020832;28;20040;-61
2023/04/19 05:41:05;;;;;;;15.20;9.85;;;;;;;7.15;100.00;97709.56;5021176;28;20053;-61
2023/04/19 05:43:31;;;;;;;17.08;10.80;;;;;;;7.14;100.00;97705.22;5030793;28;20099;-61
2023/04/19 05:45:58;;;;;;;16.95;11.10;;;;;;;7.01;100.00;97702.66;5022957;28;20042;-59
2023/04/19 05:48:25;;;;;;;19.58;11.73;;;;;;;7.09;100.00;97709.63;5031313;28;20099;-61
2023/04/19 05:51:07;;;;;;;;;;;;;;;7.01;100.00;97708.84;5015897;28;20796;-61
2023/04/19 05:53:42;;;;;;;20.75;11.35;;;;;;;7.01;100.00;97708.06;5015542;28;19925;-60
2023/04/19 05:56:08;;;;;;;19.17;11.70;;;;;;;7.08;100.00;97713.38;5021399;28;20037;-60
2023/04/19 05:58:35;;;;;;;20.60;11.50;;;;;;;7.06;100.00;97704.69;5021274;28;20532;-60
2023/04/19 06:01:03;;;;;;;18.17;10.98;;;;;;;7.12;100.00;97710.00;5023974;28;20037;-60
2023/04/19 06:03:30;;;;;;;18.95;11.38;;;;;;;7.23;100.00;97713.03;5017719;28;20088;-60
2023/04/19 06:05:59;;;;;;;18.02;11.57;;;;;;;7.09;100.00;97709.63;5024893;28;20033;-61
2023/04/19 06:08:25;;;;;;;19.45;11.65;;;;;;;6.97;100.00;97704.16;5018428;28;20053;-60
2023/04/19 06:10:54;;;;;;;21.55;12.27;;;;;;;6.96;100.00;97707.91;5014466;28;20053;-60
2023/04/19 06:13:30;;;;;;;20.45;12.45;;;;;;;7.06;100.00;97705.50;5016953;28;20637;-59
2023/04/19 06:15:57;;;;;;;21.80;12.25;;;;;;;7.24;100.00;97717.38;5026378;28;20064;-58
2023/04/19 06:18:23;;;;;;;19.55;10.65;;;;;;;7.30;100.00;97708.41;5020614;28;20057;-58
2023/04/19 06:20:52;;;;;;;19.50;11.38;;;;;;;7.42;100.00;97706.59;5023201;28;20053;-58
2023/04/19 06:23:18;;;;;;;19.40;11.10;;;;;;;7.41;100.00;97707.66;5022886;28;20409;-60
2023/04/19 06:25:47;;;;;;;19.10;12.48;;;;;;;7.28;100.00;97707.81;5023352;28;20033;-60
2023/04/19 06:28:14;;;;;;;21.10;12.50;;;;;;;7.38;100.00;97710.78;5028113;28;20045;-60
2023/04/19 06:30:41;;;;;;;20.45;12.40;;;;;;;7.34;100.00;97701.50;4984507;28;1082829;-60
2023/04/19 06:33:07;;;;;;;21.45;12.15;;;;;;;7.28;100.00;97707.81;5023988;28;20073;-59
2023/04/19 06:35:34;;;;;;;21.65;12.55;;;;;;;7.36;100.00;97707.50;5022959;28;20094;-58
2023/04/19 06:38:00;;;;;;;19.67;12.15;;;;;;;7.63;100.00;97707.22;5021865;28;20045;-61
2023/04/19 06:40:30;;;;;;;18.90;11.13;;;;;;;7.69;100.00;97702.81;5023850;28;20610;-60
2023/04/19 06:42:57;;;;;;;19.50;11.15;;;;;;;7.83;99.93;97703.47;5022528;28;20562;-60
2023/04/19 06:45:23;;;;;;;17.98;11.32;;;;;;;7.83;99.56;97700.78;5024047;28;20065;-61
2023/04/19 06:47:50;;;;;;;18.40;11.45;;;;;;;7.86;98.82;97708.44;5022762;28;20073;-60
2023/04/19 06:50:17;;;;;;;19.52;11.48;;;;;;;7.99;98.36;97709.31;5024134;28;20041;-61
2023/04/19 06:52:43;;;;;;;18.77;11.25;;;;;;;7.78;99.10;97708.72;5023385;28;20045;-61
2023/04/19 06:55:10;;;;;;;18.00;11.05;;;;;;;7.87;99.66;97707.38;5024047;28;20064;-61
2023/04/19 06:57:37;;;;;;;18.55;11.00;;;;;;;8.06;98.57;97702.78;5026515;28;20038;-61
2023/04/19 07:00:05;;;;;;;18.30;11.10;;;;;;;7.93;98.50;97708.34;5023047;28;20500;-61
2023/04/19 07:02:32;;;;;;;18.17;11.15;;;;;;;7.98;98.72;97707.66;5023784;28;20049;-61
2023/04/19 07:04:58;;;;;;;17.50;10.52;;;;;;;8.16;98.42;97706.81;5023268;28;20049;-61
2023/04/19 07:07:25;;;;;;;19.60;11.70;;;;;;;8.12;98.43;97711.84;5023389;28;20045;-61
2023/04/19 07:09:51;;;;;;;18.80;11.15;;;;;;;8.16;97.28;97713.03;5022745;28;20057;-61
2023/04/19 07:12:18;;;;;;;18.00;10.38;;;;;;;8.45;94.97;97697.03;5023374;28;20113;-61
2023/04/19 07:14:44;;;;;;;17.30;10.27;;;;;;;8.58;93.71;97714.13;5022842;28;20422;-61
2023/04/19 07:17:12;;;;;;;17.63;9.93;;;;;;;8.18;96.07;97708.22;5023149;28;20037;-61
2023/04/19 07:19:39;;;;;;;17.95;11.00;;;;;;;8.11;96.31;97706.66;5023850;28;20115;-61
2023/04/19 07:22:05;;;;;;;17.70;9.75;;;;;;;8.27;95.09;97697.09;5023046;28;20509;-60
2023/04/19 07:24:32;;;;;;;16.42;10.40;;;;;;;8.35;94.45;97699.50;5031535;28;20049;-61
2023/04/19 07:26:58;;;;;;;17.13;10.18;;;;;;;8.42;94.35;97691.28;5030242;28;20558;-61
2023/04/19 07:29:25;;;;;;;16.67;10.73;;;;;;;8.49;94.77;97692.03;5027002;28;20084;-61
2023/04/19 07:31:54;;;;;;;15.23;9.13;;;;;;;8.54;93.83;97694.88;5021308;28;20045;-61
2023/04/19 07:34:20;;;;;;;16.50;10.80;;;;;;;8.68;93.80;97690.13;5025609;28;20045;-61
2023/04/19 07:36:47;;;;;;;17.88;10.43;;;;;;;8.72;92.79;97690.47;5030758;28;20536;-60
2023/04/19 07:39:13;;;;;;;14.73;9.63;;;;;;;8.74;91.89;97692.94;5024523;28;20152;-61
2023/04/19 07:41:40;;;;;;;15.00;9.50;;;;;;;8.79;92.48;97685.78;5032772;28;20487;-61
2023/04/19 07:44:06;;;;;;;15.60;10.82;;;;;;;8.81;91.58;97682.84;5025285;28;20045;-57
2023/04/19 07:46:33;;;;;;;16.52;10.10;;;;;;;8.79;92.16;97687.66;5034864;28;20045;-58
2023/04/19 07:48:59;;;;;;;13.75;9.93;;;;;;;8.76;91.07;97677.31;5027654;28;20592;-60
2023/04/19 07:51:26;;;;;;;15.32;9.45;;;;;;;8.88;91.06;97683.53;5026133;28;20456;-59
2023/04/19 07:53:53;;;;;;;13.80;9.13;;;;;;;9.04;90.66;97690.16;5027979;28;20092;-59
2023/04/19 07:56:21;;;;;;;14.20;9.75;;;;;;;8.94;90.59;97673.69;5031102;28;20386;-58
2023/04/19 07:58:47;;;;;;;14.75;9.20;;;;;;;8.89;90.06;97669.00;5027019;28;20045;-59
2023/04/19 08:01:26;;;;;;;14.88;9.27;;;;;;;8.88;89.41;97670.03;5032559;28;20053;-59
2023/04/19 08:03:52;;;;;;;16.27;9.07;;;;;;;9.04;89.67;97665.84;5028969;28;20068;-60
2023/04/19 08:06:20;;;;;;;13.50;9.02;;;;;;;9.15;87.94;97666.91;5027535;28;20038;-60
2023/04/19 08:08:47;;;;;;;12.90;8.45;;;;;;;9.01;87.23;97663.63;5031721;28;20528;-60
2023/04/19 08:11:15;;;;;;;14.00;8.90;;;;;;;8.97;87.53;97662.44;5029421;28;20129;-59
2023/04/19 08:13:42;;;;;;;13.73;8.73;;;;;;;9.12;87.42;97653.88;5032508;28;20075;-60
2023/04/19 08:16:21;;;;;;;12.23;8.10;;;;;;;9.32;87.29;97658.88;5020317;28;20398;-60
2023/04/19 08:19:08;;;;;;;11.75;7.88;;;;;;;9.51;85.68;97656.03;5024718;28;20065;-60
2023/04/19 08:21:35;;;;;;;12.48;8.13;;;;;;;9.84;86.00;97659.16;5024595;28;20073;-60
2023/04/19 08:24:07;;;;;;;14.23;8.88;;;;;;;9.72;83.55;97651.88;5024114;28;20037;-60
2023/04/19 08:26:33;;;;;;;14.95;7.93;;;;;;;9.97;82.65;97660.75;5026005;28;20128;-60
2023/04/19 08:29:00;;;;;;;14.00;9.40;;;;;;;10.18;82.37;97653.84;5029751;28;20049;-61
2023/04/19 08:31:26;;;;;;;12.52;8.43;;;;;;;10.51;80.90;97657.69;5027051;28;20152;-60
2023/04/19 08:33:53;;;;;;;14.27;7.20;;;;;;;10.77;78.06;97663.53;5029808;28;20066;-60
2023/04/19 08:36:20;;;;;;;10.57;7.28;;;;;;;10.52;75.98;97662.06;5028291;28;20135;-60
2023/04/19 08:39:01;;;;;;;13.45;8.35;;;;;;;10.47;77.23;97661.94;5024002;28;20696;-60
2023/04/19 08:41:36;;;;;;;12.48;7.93;;;;;;;10.39;78.11;97655.03;5031838;28;20069;-59
2023/04/19 08:44:03;;;;;;;12.65;7.75;;;;;;;10.35;78.19;97653.03;5023483;28;20518;-58
2023/04/19 08:46:31;;;;;;;12.60;7.90;;;;;;;10.44;77.23;97656.19;5031999;28;20033;-59
2023/04/19 08:48:58;;;;;;;16.83;9.35;;;;;;;10.38;78.47;97657.97;5026353;28;20056;-61
2023/04/19 08:51:26;;;;;;;13.23;9.40;;;;;;;10.44;78.53;97653.47;5028992;28;20524;-57
2023/04/19 08:53:55;;;;;;;14.05;8.77;;;;;;;10.57;77.59;97650.47;5022036;28;20511;-59
2023/04/19 08:56:22;;;;;;;16.35;8.95;;;;;;;10.74;77.09;97653.22;5020250;28;20148;-60
2023/04/19 08:58:49;;;;;;;14.90;8.68;;;;;;;10.60;78.86;97649.16;5025086;28;20105;-60
2023/04/19 09:01:29;;;;;;;18.73;12.15;;;;;;;10.34;79.58;97651.41;5026055;28;20048;-59
2023/04/19 09:04:06;;;;;;;12.55;7.50;;;;;;;10.35;81.34;97643.03;5024934;28;20052;-60
2023/04/19 09:06:53;;;;;;;12.63;8.48;;;;;;;9.86;84.32;97643.50;5025388;28;20037;-59
2023/04/19 09:09:25;;;;;;;16.13;11.13;;;;;;;9.80;84.16;97645.28;5025818;28;20075;-56
2023/04/19 09:11:57;;;;;;;13.50;8.98;;;;;;;10.01;83.57;97638.38;5025543;28;20057;-60
2023/04/19 09:14:25;;;;;;;13.45;8.93;;;;;;;10.38;82.67;97636.31;5025809;28;20042;-59
2023/04/19 09:16:51;;;;;;;13.13;8.55;;;;;;;10.44;83.31;97639.94;5035443;28;20033;-59
2023/04/19 09:19:18;;;;;;;14.40;10.00;;;;;;;10.66;82.40;97638.16;5025222;28;20095;-59
2023/04/19 09:21:52;;;;;;;14.38;9.73;;;;;;;10.62;81.69;97633.50;5025168;28;20568;-59
2023/04/19 09:24:37;;;;;;;13.30;8.52;;;;;;;10.76;81.81;97634.81;5032922;28;20128;-59
2023/04/19 09:27:29;;;;;;;15.05;9.98;;;;;;;10.92;79.30;97632.34;5020620;28;20049;-60
2023/04/19 09:29:56;;;;;;;;;;;;;;;10.74;80.57;97638.84;5029725;28;20060;-61
2023/04/19 09:32:23;;;;;;;14.00;9.98;;;;;;;11.02;79.02;97632.50;5023159;28;19986;-61
2023/04/19 09:34:55;;;;;;;14.05;9.02;;;;;;;11.36;77.00;97628.91;5022940;28;20053;-61
2023/04/19 09:37:23;;;;;;;19.27;10.98;;;;;;;11.30;77.95;97627.19;5024997;28;20056;-61
2023/04/19 09:39:52;;;;;;;15.63;9.52;;;;;;;11.45;75.17;97626.56;5024994;28;20041;-61
2023/04/19 09:42:19;;;;;;;60.33;26.48;;;;;;;11.18;77.39;97625.38;5023237;28;20057;-60
2023/04/19 09:45:06;;;;;;;14.88;8.48;;;;;;;11.43;76.05;97626.00;5023917;28;20037;-59
2023/04/19 09:47:35;;;;;;;19.45;11.15;;;;;;;11.67;75.28;97621.16;5024718;28;20103;-59
2023/04/19 09:50:09;;;;;;;11.85;8.13;;;;;;;11.84;73.85;97615.63;5024294;28;20036;-60
2023/04/19 09:52:49;;;;;;;13.70;8.90;;;;;;;11.92;72.53;97602.69;5024225;28;20127;-60
2023/04/19 09:55:17;;;;;;;11.23;7.53;;;;;;;12.12;72.22;97606.75;5029798;28;20441;-61
2023/04/19 09:57:53;;;;;;;12.75;9.13;;;;;;;11.65;74.88;97607.00;5024611;28;20107;-60
2023/04/19 10:00:21;;;;;;;13.55;8.82;;;;;;;11.62;76.16;97604.81;5024356;28;20033;-60
2023/04/19 10:02:56;;;;;;;15.30;9.68;;;;;;;11.52;77.05;97597.38;5031750;28;20555;-59
2023/04/19 10:05:24;;;;;;;14.70;9.30;;;;;;;11.29;76.60;97604.69;5027310;28;20509;-60
2023/04/19 10:07:52;;;;;;;16.83;10.48;;;;;;;11.05;74.84;97602.19;5021696;28;20065;-60
2023/04/19 10:10:25;;;;;;;15.95;8.93;;;;;;;11.17;74.62;97598.56;5023246;28;20614;-59
2023/04/19 10:13:10;;;;;;;14.77;9.25;;;;;;;11.03;75.70;97600.81;5023027;28;20052;-58
2023/04/19 10:15:46;;;;;;;16.73;10.32;;;;;;;11.26;77.14;97597.06;5022677;28;20517;-61
2023/04/19 10:18:21;;;;;;;15.25;10.02;;;;;;;11.80;72.34;97594.72;5024665;28;20065;-61
2023/04/19 10:20:57;;;;;;;13.90;8.57;;;;;;;11.76;71.98;97597.09;5022795;28;20041;-61
2023/04/19 10:23:23;;;;;;;13.05;7.65;;;;;;;11.74;72.52;97582.97;5023801;28;20095;-60
2023/04/19 10:25:56;;;;;;;12.25;8.63;;;;;;;11.64;73.68;97589.09;5024010;28;20073;-60
2023/04/19 10:28:22;;;;;;;12.20;8.25;;;;;;;11.93;72.46;97579.91;5018494;28;20073;-60
2023/04/19 10:31:11;;;;;;;13.07;8.80;;;;;;;11.49;74.09;97583.50;5023367;28;20633;-61
2023/04/19 10:33:39;;;;;;;13.25;7.97;;;;;;;11.48;72.12;97585.41;5021928;28;20088;-60
2023/04/19 10:36:12;;;;;;;12.68;7.55;;;;;;;11.38;72.40;97582.53;5024020;28;20120;-60
2023/04/19 10:38:46;;;;;;;13.60;8.30;;;;;;;11.17;74.24;97585.81;5024690;28;20655;-61
2023/04/19 10:41:14;;;;;;;18.10;9.40;;;;;;;11.13;76.04;97579.25;5022478;28;20466;-61
2023/04/19 10:44:10;;;;;;;14.17;8.27;;;;;;;11.10;75.71;97577.06;5027078;28;20044;-59
2023/04/19 10:46:40;;;;;;;13.43;8.43;;;;;;;11.22;74.70;97565.28;5020383;28;20530;-60
2023/04/19 10:49:08;;;;;;;13.07;8.98;;;;;;;11.00;75.93;97566.06;5027872;28;20081;-60
2023/04/19 10:51:42;;;;;;;13.43;8.35;;;;;;;10.70;77.80;97564.56;5026801;28;20564;-60
2023/04/19 10:54:31;;;;;;;10.75;6.95;;;;;;;10.84;77.00;97567.75;5028975;28;20064;-60
2023/04/19 10:57:03;;;;;;;10.48;7.45;;;;;;;10.88;77.24;97555.34;5025830;28;20120;-60
2023/04/19 10:59:35;;;;;;;12.95;8.90;;;;;;;10.91;78.01;97554.88;5023309;28;20045;-60
2023/04/19 11:02:21;;;;;;;11.68;7.82;;;;;;;11.05;76.73;97549.88;5028762;28;20048;-60
2023/04/19 11:04:47;;;;;;;11.85;7.43;;;;;;;11.00;76.86;97552.53;5026907;28;20044;-60
2023/04/19 11:07:14;;;;;;;13.15;8.18;;;;;;;10.56;79.12;97545.13;5032307;28;20034;-61
2023/04/19 11:09:44;;;;;;;12.68;8.68;;;;;;;10.61;78.93;97539.81;5033398;28;20049;-61
2023/04/19 11:12:13;;;;;;;11.45;7.82;;;;;;;10.59;80.39;97550.06;5024271;28;20116;-61
2023/04/19 11:14:45;;;;;;;11.38;7.88;;;;;;;10.72;80.35;97546.19;5033001;28;20095;-61
2023/04/19 11:17:24;;;;;;;12.05;7.63;;;;;;;10.74;80.55;97542.16;5023565;28;20053;-61
2023/04/19 11:19:58;;;;;;;12.20;8.20;;;;;;;10.74;80.51;97542.16;5027145;28;20049;-61
2023/04/19 11:22:25;;;;;;;14.32;7.82;;;;;;;10.65;80.82;97540.97;5031175;28;20539;-61
2023/04/19 11:24:52;;;;;;;14.52;8.07;;;;;;;10.58;81.84;97538.41;5031363;28;20049;-61
2023/04/19 11:27:19;;;;;;;13.65;8.25;;;;;;;10.48;82.62;97547.19;5026104;28;20133;-61
2023/04/19 11:29:46;;;;;;;12.45;8.25;;;;;;;10.37;83.05;97534.53;5029970;28;20136;-61